Arlington, Vermont
Current Conditions -  °F | °C
As of 1:54 PM on Thursday 27 Nov 2014 (Local Time) from KDDH Reporting Station
Overcast Overcast  
Wind Chill: 24°   Ceiling: 1900
Heat Index: 29°   Visibility: 10mi
Dew Point: 22°   Wind: 5mph
Humidity: 75%   Direction: 320°NW
Pressure: 29.96"   Gusts: NA
Location:  43.07°N, 73.15°W
Report Text: KDDH 271854Z AUTO 32004KT 10SM OVC019 M02/M06 A2996 RMK AO2 SLP154 I1000 T10171056
Loading
Personal Weather Stations






























Interactive Weather Map New forecast layout! Learn more

10-Day Weather Forecast

Advertisements
Track Severe Weather on mobile